sensor_id;sensor_type;location;lat;lon;timestamp;P1;durP1;ratioP1;P2;durP2;ratioP2
69894;SDS011;57172;52.034;5.090;2022-08-19T00:02:00;7.38;;;5.20;;
69894;SDS011;57172;52.034;5.090;2022-08-19T00:04:31;6.80;;;5.00;;
69894;SDS011;57172;52.034;5.090;2022-08-19T00:07:03;7.05;;;5.05;;
69894;SDS011;57172;52.034;5.090;2022-08-19T00:09:31;6.63;;;5.00;;
69894;SDS011;57172;52.034;5.090;2022-08-19T00:11:59;7.72;;;4.78;;
69894;SDS011;57172;52.034;5.090;2022-08-19T00:14:27;7.82;;;5.07;;
69894;SDS011;57172;52.034;5.090;2022-08-19T00:16:58;6.25;;;4.80;;
69894;SDS011;57172;52.034;5.090;2022-08-19T00:19:25;7.78;;;5.20;;
69894;SDS011;57172;52.034;5.090;2022-08-19T00:21:52;7.80;;;4.80;;
69894;SDS011;57172;52.034;5.090;2022-08-19T00:24:19;6.88;;;5.22;;
69894;SDS011;57172;52.034;5.090;2022-08-19T00:26:46;7.63;;;5.20;;
69894;SDS011;57172;52.034;5.090;2022-08-19T00:29:14;9.20;;;5.13;;
69894;SDS011;57172;52.034;5.090;2022-08-19T00:31:43;7.78;;;4.90;;
69894;SDS011;57172;52.034;5.090;2022-08-19T00:34:11;6.97;;;5.10;;
69894;SDS011;57172;52.034;5.090;2022-08-19T00:36:40;8.45;;;5.00;;
69894;SDS011;57172;52.034;5.090;2022-08-19T00:39:08;7.22;;;4.82;;
69894;SDS011;57172;52.034;5.090;2022-08-19T00:41:35;7.30;;;5.50;;
69894;SDS011;57172;52.034;5.090;2022-08-19T00:44:04;7.50;;;5.00;;
69894;SDS011;57172;52.034;5.090;2022-08-19T00:46:39;7.30;;;5.57;;
69894;SDS011;57172;52.034;5.090;2022-08-19T00:49:27;10.90;;;7.20;;
69894;SDS011;57172;52.034;5.090;2022-08-19T00:52:08;9.52;;;6.07;;
69894;SDS011;57172;52.034;5.090;2022-08-19T00:54:38;9.40;;;6.68;;
69894;SDS011;57172;52.034;5.090;2022-08-19T00:57:08;10.30;;;7.25;;
69894;SDS011;57172;52.034;5.090;2022-08-19T00:59:38;12.60;;;8.80;;
69894;SDS011;57172;52.034;5.090;2022-08-19T01:02:27;10.25;;;7.40;;
69894;SDS011;57172;52.034;5.090;2022-08-19T01:04:55;11.45;;;7.32;;
69894;SDS011;57172;52.034;5.090;2022-08-19T01:07:23;10.77;;;7.28;;
69894;SDS011;57172;52.034;5.090;2022-08-19T01:09:50;10.13;;;7.25;;
69894;SDS011;57172;52.034;5.090;2022-08-19T01:12:17;11.90;;;6.90;;
69894;SDS011;57172;52.034;5.090;2022-08-19T01:14:45;12.75;;;7.50;;
69894;SDS011;57172;52.034;5.090;2022-08-19T01:17:13;9.90;;;7.43;;
69894;SDS011;57172;52.034;5.090;2022-08-19T01:19:42;12.75;;;8.02;;
69894;SDS011;57172;52.034;5.090;2022-08-19T01:25:01;22.23;;;13.17;;
69894;SDS011;57172;52.034;5.090;2022-08-19T01:27:38;15.52;;;10.13;;
69894;SDS011;57172;52.034;5.090;2022-08-19T01:30:10;21.63;;;12.80;;
69894;SDS011;57172;52.034;5.090;2022-08-19T01:32:40;17.80;;;11.32;;
69894;SDS011;57172;52.034;5.090;2022-08-19T01:35:07;22.45;;;12.68;;
69894;SDS011;57172;52.034;5.090;2022-08-19T01:37:47;19.83;;;12.43;;
69894;SDS011;57172;52.034;5.090;2022-08-19T01:40:20;19.83;;;12.00;;
69894;SDS011;57172;52.034;5.090;2022-08-19T01:42:49;24.40;;;14.63;;
69894;SDS011;57172;52.034;5.090;2022-08-19T01:45:17;26.92;;;16.15;;
69894;SDS011;57172;52.034;5.090;2022-08-19T01:47:45;32.25;;;17.23;;
69894;SDS011;57172;52.034;5.090;2022-08-19T01:50:26;27.60;;;16.20;;
69894;SDS011;57172;52.034;5.090;2022-08-19T01:52:53;24.05;;;14.60;;
69894;SDS011;57172;52.034;5.090;2022-08-19T01:55:33;27.42;;;15.02;;
69894;SDS011;57172;52.034;5.090;2022-08-19T01:58:08;24.15;;;14.38;;
69894;SDS011;57172;52.034;5.090;2022-08-19T02:00:43;22.38;;;13.88;;
69894;SDS011;57172;52.034;5.090;2022-08-19T02:03:11;25.87;;;14.03;;
69894;SDS011;57172;52.034;5.090;2022-08-19T02:05:39;22.00;;;13.15;;
69894;SDS011;57172;52.034;5.090;2022-08-19T02:08:07;23.42;;;13.77;;
69894;SDS011;57172;52.034;5.090;2022-08-19T02:10:37;22.88;;;13.25;;
69894;SDS011;57172;52.034;5.090;2022-08-19T02:13:06;23.35;;;13.45;;
69894;SDS011;57172;52.034;5.090;2022-08-19T02:15:33;21.70;;;13.43;;
69894;SDS011;57172;52.034;5.090;2022-08-19T02:17:59;22.88;;;13.52;;
69894;SDS011;57172;52.034;5.090;2022-08-19T02:20:26;27.73;;;15.88;;
69894;SDS011;57172;52.034;5.090;2022-08-19T02:22:53;28.20;;;16.67;;
69894;SDS011;57172;52.034;5.090;2022-08-19T02:25:20;24.48;;;14.82;;
69894;SDS011;57172;52.034;5.090;2022-08-19T02:27:47;26.63;;;15.43;;
69894;SDS011;57172;52.034;5.090;2022-08-19T02:30:16;31.77;;;17.23;;
69894;SDS011;57172;52.034;5.090;2022-08-19T02:32:45;32.58;;;17.80;;
69894;SDS011;57172;52.034;5.090;2022-08-19T02:35:12;29.80;;;17.25;;
69894;SDS011;57172;52.034;5.090;2022-08-19T02:37:40;25.17;;;14.60;;
69894;SDS011;57172;52.034;5.090;2022-08-19T02:40:27;23.27;;;14.37;;
69894;SDS011;57172;52.034;5.090;2022-08-19T02:42:55;28.55;;;15.00;;
69894;SDS011;57172;52.034;5.090;2022-08-19T02:45:22;24.48;;;14.60;;
69894;SDS011;57172;52.034;5.090;2022-08-19T02:47:49;28.88;;;16.23;;
69894;SDS011;57172;52.034;5.090;2022-08-19T02:50:16;30.88;;;16.33;;
69894;SDS011;57172;52.034;5.090;2022-08-19T02:52:43;28.60;;;15.80;;
69894;SDS011;57172;52.034;5.090;2022-08-19T02:55:11;29.20;;;15.38;;
69894;SDS011;57172;52.034;5.090;2022-08-19T02:57:38;25.27;;;14.38;;
69894;SDS011;57172;52.034;5.090;2022-08-19T03:00:05;24.25;;;14.82;;
69894;SDS011;57172;52.034;5.090;2022-08-19T03:02:35;29.13;;;16.30;;
69894;SDS011;57172;52.034;5.090;2022-08-19T03:05:02;25.13;;;14.33;;
69894;SDS011;57172;52.034;5.090;2022-08-19T03:07:30;27.45;;;16.38;;
69894;SDS011;57172;52.034;5.090;2022-08-19T03:09:57;30.02;;;16.42;;
69894;SDS011;57172;52.034;5.090;2022-08-19T03:12:24;30.08;;;15.88;;
69894;SDS011;57172;52.034;5.090;2022-08-19T03:14:51;30.90;;;16.42;;
69894;SDS011;57172;52.034;5.090;2022-08-19T03:17:19;29.87;;;15.07;;
69894;SDS011;57172;52.034;5.090;2022-08-19T03:19:46;25.02;;;14.05;;
69894;SDS011;57172;52.034;5.090;2022-08-19T03:22:13;28.42;;;15.20;;
69894;SDS011;57172;52.034;5.090;2022-08-19T03:24:40;30.65;;;16.40;;
69894;SDS011;57172;52.034;5.090;2022-08-19T03:27:07;26.35;;;15.45;;
69894;SDS011;57172;52.034;5.090;2022-08-19T03:29:33;26.33;;;15.40;;
69894;SDS011;57172;52.034;5.090;2022-08-19T03:32:09;26.35;;;15.32;;
69894;SDS011;57172;52.034;5.090;2022-08-19T03:34:56;39.97;;;19.85;;
69894;SDS011;57172;52.034;5.090;2022-08-19T03:37:23;38.35;;;19.75;;
69894;SDS011;57172;52.034;5.090;2022-08-19T03:39:51;30.75;;;17.27;;
69894;SDS011;57172;52.034;5.090;2022-08-19T03:42:18;32.57;;;17.70;;
69894;SDS011;57172;52.034;5.090;2022-08-19T03:44:58;37.47;;;18.92;;
69894;SDS011;57172;52.034;5.090;2022-08-19T03:47:25;33.58;;;18.58;;
69894;SDS011;57172;52.034;5.090;2022-08-19T03:49:52;28.27;;;16.65;;
69894;SDS011;57172;52.034;5.090;2022-08-19T03:52:19;37.85;;;19.52;;
69894;SDS011;57172;52.034;5.090;2022-08-19T03:54:45;47.50;;;22.93;;
69894;SDS011;57172;52.034;5.090;2022-08-19T03:57:12;49.60;;;22.90;;
69894;SDS011;57172;52.034;5.090;2022-08-19T03:59:39;35.28;;;18.95;;
69894;SDS011;57172;52.034;5.090;2022-08-19T04:02:08;38.42;;;20.65;;
69894;SDS011;57172;52.034;5.090;2022-08-19T04:04:37;34.60;;;18.33;;
69894;SDS011;57172;52.034;5.090;2022-08-19T04:07:05;49.60;;;24.53;;
69894;SDS011;57172;52.034;5.090;2022-08-19T04:09:33;53.10;;;23.75;;
69894;SDS011;57172;52.034;5.090;2022-08-19T04:12:00;50.58;;;23.38;;
69894;SDS011;57172;52.034;5.090;2022-08-19T04:14:28;47.95;;;22.50;;
69894;SDS011;57172;52.034;5.090;2022-08-19T04:16:59;48.75;;;22.50;;
69894;SDS011;57172;52.034;5.090;2022-08-19T04:19:28;51.03;;;23.13;;
69894;SDS011;57172;52.034;5.090;2022-08-19T04:21:56;47.60;;;22.33;;
69894;SDS011;57172;52.034;5.090;2022-08-19T04:24:23;50.47;;;22.90;;
69894;SDS011;57172;52.034;5.090;2022-08-19T04:26:50;52.90;;;23.33;;
69894;SDS011;57172;52.034;5.090;2022-08-19T04:29:19;56.55;;;24.25;;
69894;SDS011;57172;52.034;5.090;2022-08-19T04:31:48;48.47;;;22.93;;
69894;SDS011;57172;52.034;5.090;2022-08-19T04:34:16;48.40;;;23.85;;
69894;SDS011;57172;52.034;5.090;2022-08-19T04:36:48;54.00;;;23.73;;
69894;SDS011;57172;52.034;5.090;2022-08-19T04:39:19;45.55;;;22.23;;
69894;SDS011;57172;52.034;5.090;2022-08-19T04:41:48;46.83;;;22.83;;
69894;SDS011;57172;52.034;5.090;2022-08-19T04:44:34;51.33;;;23.67;;
69894;SDS011;57172;52.034;5.090;2022-08-19T04:47:11;53.35;;;25.70;;
69894;SDS011;57172;52.034;5.090;2022-08-19T04:49:38;55.65;;;24.08;;
69894;SDS011;57172;52.034;5.090;2022-08-19T04:52:05;57.55;;;25.17;;
69894;SDS011;57172;52.034;5.090;2022-08-19T04:54:32;55.35;;;25.15;;
69894;SDS011;57172;52.034;5.090;2022-08-19T04:57:04;53.73;;;25.03;;
69894;SDS011;57172;52.034;5.090;2022-08-19T04:59:33;53.65;;;25.00;;
69894;SDS011;57172;52.034;5.090;2022-08-19T05:02:01;56.72;;;26.00;;
69894;SDS011;57172;52.034;5.090;2022-08-19T05:04:27;57.30;;;25.30;;
69894;SDS011;57172;52.034;5.090;2022-08-19T05:06:58;56.38;;;25.73;;
69894;SDS011;57172;52.034;5.090;2022-08-19T05:09:26;58.50;;;25.47;;
69894;SDS011;57172;52.034;5.090;2022-08-19T05:12:13;53.17;;;24.80;;
69894;SDS011;57172;52.034;5.090;2022-08-19T05:14:41;62.05;;;26.58;;
69894;SDS011;57172;52.034;5.090;2022-08-19T05:17:08;53.78;;;25.58;;
69894;SDS011;57172;52.034;5.090;2022-08-19T05:19:55;64.65;;;27.00;;
69894;SDS011;57172;52.034;5.090;2022-08-19T05:22:42;60.03;;;26.90;;
69894;SDS011;57172;52.034;5.090;2022-08-19T05:25:11;66.28;;;27.92;;
69894;SDS011;57172;52.034;5.090;2022-08-19T05:27:40;61.17;;;27.33;;
69894;SDS011;57172;52.034;5.090;2022-08-19T05:30:09;61.97;;;27.50;;
69894;SDS011;57172;52.034;5.090;2022-08-19T05:32:37;62.38;;;27.70;;
69894;SDS011;57172;52.034;5.090;2022-08-19T05:35:05;67.50;;;27.40;;
69894;SDS011;57172;52.034;5.090;2022-08-19T05:37:32;63.08;;;26.42;;
69894;SDS011;57172;52.034;5.090;2022-08-19T05:39:59;65.20;;;27.25;;
69894;SDS011;57172;52.034;5.090;2022-08-19T05:42:26;62.80;;;27.30;;
69894;SDS011;57172;52.034;5.090;2022-08-19T05:44:53;59.83;;;26.30;;
69894;SDS011;57172;52.034;5.090;2022-08-19T05:47:20;63.37;;;27.33;;
69894;SDS011;57172;52.034;5.090;2022-08-19T05:49:47;58.60;;;26.88;;
69894;SDS011;57172;52.034;5.090;2022-08-19T05:52:16;63.72;;;27.15;;
69894;SDS011;57172;52.034;5.090;2022-08-19T05:54:44;64.53;;;27.85;;
69894;SDS011;57172;52.034;5.090;2022-08-19T05:57:17;63.95;;;26.73;;
69894;SDS011;57172;52.034;5.090;2022-08-19T05:59:45;58.90;;;26.70;;
69894;SDS011;57172;52.034;5.090;2022-08-19T06:02:16;63.92;;;26.83;;
69894;SDS011;57172;52.034;5.090;2022-08-19T06:04:43;63.08;;;25.20;;
69894;SDS011;57172;52.034;5.090;2022-08-19T06:07:10;53.80;;;23.10;;
69894;SDS011;57172;52.034;5.090;2022-08-19T06:09:38;51.72;;;22.13;;
69894;SDS011;57172;52.034;5.090;2022-08-19T06:12:05;53.33;;;23.57;;
69894;SDS011;57172;52.034;5.090;2022-08-19T06:14:33;57.90;;;23.35;;
69894;SDS011;57172;52.034;5.090;2022-08-19T06:17:07;59.70;;;23.90;;
69894;SDS011;57172;52.034;5.090;2022-08-19T06:19:34;57.17;;;22.85;;
69894;SDS011;57172;52.034;5.090;2022-08-19T06:22:06;60.42;;;24.00;;
69894;SDS011;57172;52.034;5.090;2022-08-19T06:24:34;55.73;;;23.63;;
69894;SDS011;57172;52.034;5.090;2022-08-19T06:27:01;58.95;;;24.52;;
69894;SDS011;57172;52.034;5.090;2022-08-19T06:29:31;67.25;;;26.70;;
69894;SDS011;57172;52.034;5.090;2022-08-19T06:31:59;57.67;;;25.38;;
69894;SDS011;57172;52.034;5.090;2022-08-19T06:34:29;66.28;;;25.95;;
69894;SDS011;57172;52.034;5.090;2022-08-19T06:36:58;58.73;;;26.40;;
69894;SDS011;57172;52.034;5.090;2022-08-19T06:39:32;68.72;;;26.88;;
69894;SDS011;57172;52.034;5.090;2022-08-19T06:42:05;68.15;;;28.15;;
69894;SDS011;57172;52.034;5.090;2022-08-19T06:44:36;61.60;;;27.50;;
69894;SDS011;57172;52.034;5.090;2022-08-19T06:47:09;58.17;;;26.15;;
69894;SDS011;57172;52.034;5.090;2022-08-19T06:49:40;58.10;;;25.70;;
69894;SDS011;57172;52.034;5.090;2022-08-19T06:52:08;57.05;;;24.40;;
69894;SDS011;57172;52.034;5.090;2022-08-19T06:54:39;50.95;;;23.05;;
69894;SDS011;57172;52.034;5.090;2022-08-19T06:57:22;45.65;;;21.50;;
69894;SDS011;57172;52.034;5.090;2022-08-19T06:59:50;46.75;;;21.25;;
69894;SDS011;57172;52.034;5.090;2022-08-19T07:02:17;49.77;;;22.53;;
69894;SDS011;57172;52.034;5.090;2022-08-19T07:04:45;50.60;;;22.83;;
69894;SDS011;57172;52.034;5.090;2022-08-19T07:07:13;48.55;;;22.27;;
69894;SDS011;57172;52.034;5.090;2022-08-19T07:09:47;43.03;;;20.60;;
69894;SDS011;57172;52.034;5.090;2022-08-19T07:12:26;44.78;;;21.48;;
69894;SDS011;57172;52.034;5.090;2022-08-19T07:14:55;46.23;;;21.10;;
69894;SDS011;57172;52.034;5.090;2022-08-19T07:17:23;45.72;;;21.65;;
69894;SDS011;57172;52.034;5.090;2022-08-19T07:19:50;43.72;;;21.08;;
69894;SDS011;57172;52.034;5.090;2022-08-19T07:22:20;42.83;;;21.30;;
69894;SDS011;57172;52.034;5.090;2022-08-19T07:24:50;47.08;;;22.08;;
69894;SDS011;57172;52.034;5.090;2022-08-19T07:27:18;46.47;;;22.13;;
69894;SDS011;57172;52.034;5.090;2022-08-19T07:29:50;44.05;;;21.48;;
69894;SDS011;57172;52.034;5.090;2022-08-19T07:32:22;41.60;;;20.90;;
69894;SDS011;57172;52.034;5.090;2022-08-19T07:34:52;41.88;;;21.35;;
69894;SDS011;57172;52.034;5.090;2022-08-19T07:37:22;43.00;;;20.77;;
69894;SDS011;57172;52.034;5.090;2022-08-19T07:39:58;39.17;;;20.90;;
69894;SDS011;57172;52.034;5.090;2022-08-19T07:42:26;42.17;;;22.15;;
69894;SDS011;57172;52.034;5.090;2022-08-19T07:44:54;41.10;;;21.63;;
69894;SDS011;57172;52.034;5.090;2022-08-19T07:47:21;39.85;;;20.65;;
69894;SDS011;57172;52.034;5.090;2022-08-19T07:50:09;41.60;;;22.08;;
69894;SDS011;57172;52.034;5.090;2022-08-19T07:52:38;40.70;;;22.00;;
69894;SDS011;57172;52.034;5.090;2022-08-19T07:55:06;43.33;;;22.33;;
69894;SDS011;57172;52.034;5.090;2022-08-19T07:57:56;41.45;;;22.00;;
69894;SDS011;57172;52.034;5.090;2022-08-19T08:00:23;42.22;;;20.77;;
69894;SDS011;57172;52.034;5.090;2022-08-19T08:02:50;43.05;;;22.35;;
69894;SDS011;57172;52.034;5.090;2022-08-19T08:05:21;45.00;;;22.20;;
69894;SDS011;57172;52.034;5.090;2022-08-19T08:08:09;41.75;;;20.73;;
69894;SDS011;57172;52.034;5.090;2022-08-19T08:11:14;42.03;;;21.25;;
69894;SDS011;57172;52.034;5.090;2022-08-19T08:13:45;41.53;;;21.58;;
69894;SDS011;57172;52.034;5.090;2022-08-19T08:16:29;42.50;;;21.35;;
69894;SDS011;57172;52.034;5.090;2022-08-19T08:18:57;38.53;;;20.67;;
69894;SDS011;57172;52.034;5.090;2022-08-19T08:21:26;39.25;;;21.27;;
69894;SDS011;57172;52.034;5.090;2022-08-19T08:23:53;37.95;;;21.05;;
69894;SDS011;57172;52.034;5.090;2022-08-19T08:26:22;40.15;;;20.17;;
69894;SDS011;57172;52.034;5.090;2022-08-19T08:28:49;38.72;;;20.48;;
69894;SDS011;57172;52.034;5.090;2022-08-19T08:31:16;33.20;;;18.00;;
69894;SDS011;57172;52.034;5.090;2022-08-19T08:33:45;39.70;;;19.83;;
69894;SDS011;57172;52.034;5.090;2022-08-19T08:36:13;36.72;;;17.50;;
69894;SDS011;57172;52.034;5.090;2022-08-19T08:38:41;31.38;;;18.88;;
69894;SDS011;57172;52.034;5.090;2022-08-19T08:43:50;31.57;;;19.07;;
69894;SDS011;57172;52.034;5.090;2022-08-19T08:46:21;32.05;;;18.35;;
69894;SDS011;57172;52.034;5.090;2022-08-19T08:51:51;31.63;;;19.52;;
69894;SDS011;57172;52.034;5.090;2022-08-19T08:54:36;34.58;;;18.55;;
69894;SDS011;57172;52.034;5.090;2022-08-19T09:00:19;32.15;;;19.75;;
69894;SDS011;57172;52.034;5.090;2022-08-19T09:02:53;35.50;;;18.80;;
69894;SDS011;57172;52.034;5.090;2022-08-19T09:05:22;31.02;;;18.33;;
69894;SDS011;57172;52.034;5.090;2022-08-19T09:08:02;35.03;;;19.67;;
69894;SDS011;57172;52.034;5.090;2022-08-19T09:10:53;32.27;;;19.57;;
69894;SDS011;57172;52.034;5.090;2022-08-19T09:16:13;33.63;;;20.00;;
69894;SDS011;57172;52.034;5.090;2022-08-19T09:18:50;36.05;;;20.80;;
69894;SDS011;57172;52.034;5.090;2022-08-19T09:21:22;37.45;;;21.88;;
69894;SDS011;57172;52.034;5.090;2022-08-19T09:23:58;36.60;;;20.70;;
69894;SDS011;57172;52.034;5.090;2022-08-19T09:26:28;38.97;;;22.67;;
69894;SDS011;57172;52.034;5.090;2022-08-19T09:29:17;34.40;;;20.45;;
69894;SDS011;57172;52.034;5.090;2022-08-19T09:31:44;35.15;;;21.85;;
69894;SDS011;57172;52.034;5.090;2022-08-19T09:34:11;38.08;;;20.73;;
69894;SDS011;57172;52.034;5.090;2022-08-19T09:36:47;38.70;;;21.30;;
69894;SDS011;57172;52.034;5.090;2022-08-19T09:39:19;37.80;;;21.67;;
69894;SDS011;57172;52.034;5.090;2022-08-19T09:41:46;33.70;;;19.38;;
69894;SDS011;57172;52.034;5.090;2022-08-19T09:44:17;37.38;;;21.27;;
69894;SDS011;57172;52.034;5.090;2022-08-19T09:46:44;35.28;;;21.17;;
69894;SDS011;57172;52.034;5.090;2022-08-19T09:49:14;32.30;;;20.23;;
69894;SDS011;57172;52.034;5.090;2022-08-19T09:51:44;28.75;;;18.75;;
69894;SDS011;57172;52.034;5.090;2022-08-19T09:54:16;30.88;;;19.30;;
69894;SDS011;57172;52.034;5.090;2022-08-19T09:56:49;35.17;;;21.02;;
69894;SDS011;57172;52.034;5.090;2022-08-19T09:59:16;30.30;;;19.67;;
69894;SDS011;57172;52.034;5.090;2022-08-19T10:01:43;34.17;;;21.07;;
69894;SDS011;57172;52.034;5.090;2022-08-19T10:04:11;36.20;;;20.30;;
69894;SDS011;57172;52.034;5.090;2022-08-19T10:06:45;35.25;;;20.38;;
69894;SDS011;57172;52.034;5.090;2022-08-19T10:09:18;34.55;;;20.38;;
69894;SDS011;57172;52.034;5.090;2022-08-19T10:12:00;36.95;;;21.63;;
69894;SDS011;57172;52.034;5.090;2022-08-19T10:14:28;68.47;;;24.07;;
69894;SDS011;57172;52.034;5.090;2022-08-19T10:16:55;38.33;;;20.60;;
69894;SDS011;57172;52.034;5.090;2022-08-19T10:19:24;36.20;;;20.15;;
69894;SDS011;57172;52.034;5.090;2022-08-19T10:21:52;35.47;;;19.77;;
69894;SDS011;57172;52.034;5.090;2022-08-19T10:24:25;37.03;;;20.02;;
69894;SDS011;57172;52.034;5.090;2022-08-19T10:26:54;35.70;;;20.17;;
69894;SDS011;57172;52.034;5.090;2022-08-19T10:29:25;32.90;;;18.77;;
69894;SDS011;57172;52.034;5.090;2022-08-19T10:31:59;33.28;;;20.15;;
69894;SDS011;57172;52.034;5.090;2022-08-19T10:34:36;30.45;;;18.73;;
69894;SDS011;57172;52.034;5.090;2022-08-19T10:37:15;32.50;;;19.20;;
69894;SDS011;57172;52.034;5.090;2022-08-19T10:39:54;30.40;;;17.53;;
69894;SDS011;57172;52.034;5.090;2022-08-19T10:42:21;26.90;;;17.27;;
69894;SDS011;57172;52.034;5.090;2022-08-19T10:44:48;27.75;;;18.65;;
69894;SDS011;57172;52.034;5.090;2022-08-19T10:47:17;30.92;;;18.17;;
69894;SDS011;57172;52.034;5.090;2022-08-19T10:49:51;28.92;;;18.05;;
69894;SDS011;57172;52.034;5.090;2022-08-19T10:52:45;27.30;;;16.73;;
69894;SDS011;57172;52.034;5.090;2022-08-19T10:55:19;24.85;;;17.20;;
69894;SDS011;57172;52.034;5.090;2022-08-19T10:58:15;23.95;;;17.60;;
69894;SDS011;57172;52.034;5.090;2022-08-19T11:00:46;30.42;;;17.23;;
69894;SDS011;57172;52.034;5.090;2022-08-19T11:03:19;25.83;;;17.95;;
69894;SDS011;57172;52.034;5.090;2022-08-19T11:05:46;29.07;;;18.07;;
69894;SDS011;57172;52.034;5.090;2022-08-19T11:08:23;26.52;;;17.20;;
69894;SDS011;57172;52.034;5.090;2022-08-19T11:10:51;26.92;;;18.50;;
69894;SDS011;57172;52.034;5.090;2022-08-19T11:13:21;26.90;;;18.45;;
69894;SDS011;57172;52.034;5.090;2022-08-19T11:15:56;26.90;;;18.95;;
69894;SDS011;57172;52.034;5.090;2022-08-19T11:18:27;35.10;;;18.57;;
69894;SDS011;57172;52.034;5.090;2022-08-19T11:20:54;27.00;;;17.90;;
69894;SDS011;57172;52.034;5.090;2022-08-19T11:23:21;29.15;;;18.70;;
69894;SDS011;57172;52.034;5.090;2022-08-19T11:25:48;25.40;;;18.25;;
69894;SDS011;57172;52.034;5.090;2022-08-19T11:28:16;27.60;;;18.38;;
69894;SDS011;57172;52.034;5.090;2022-08-19T11:30:49;23.23;;;16.77;;
69894;SDS011;57172;52.034;5.090;2022-08-19T11:33:17;24.65;;;17.02;;
69894;SDS011;57172;52.034;5.090;2022-08-19T11:35:45;26.20;;;16.77;;
69894;SDS011;57172;52.034;5.090;2022-08-19T11:38:12;26.60;;;17.50;;
69894;SDS011;57172;52.034;5.090;2022-08-19T11:40:40;25.15;;;17.38;;
69894;SDS011;57172;52.034;5.090;2022-08-19T11:43:08;22.37;;;16.60;;
69894;SDS011;57172;52.034;5.090;2022-08-19T11:45:35;26.50;;;16.45;;
69894;SDS011;57172;52.034;5.090;2022-08-19T11:48:02;25.10;;;16.08;;
69894;SDS011;57172;52.034;5.090;2022-08-19T11:50:29;24.90;;;16.63;;
69894;SDS011;57172;52.034;5.090;2022-08-19T11:52:56;23.17;;;15.20;;
69894;SDS011;57172;52.034;5.090;2022-08-19T11:55:23;19.63;;;11.00;;
69894;SDS011;57172;52.034;5.090;2022-08-19T11:57:50;17.08;;;10.68;;
69894;SDS011;57172;52.034;5.090;2022-08-19T12:00:17;15.07;;;10.30;;
69894;SDS011;57172;52.034;5.090;2022-08-19T12:02:44;15.35;;;9.88;;
69894;SDS011;57172;52.034;5.090;2022-08-19T12:05:11;13.13;;;9.98;;
69894;SDS011;57172;52.034;5.090;2022-08-19T12:07:38;15.40;;;10.23;;
69894;SDS011;57172;52.034;5.090;2022-08-19T12:10:07;13.60;;;9.73;;
69894;SDS011;57172;52.034;5.090;2022-08-19T12:12:36;14.65;;;9.15;;
69894;SDS011;57172;52.034;5.090;2022-08-19T12:15:06;13.77;;;8.32;;
69894;SDS011;57172;52.034;5.090;2022-08-19T12:17:34;12.45;;;7.82;;
69894;SDS011;57172;52.034;5.090;2022-08-19T12:20:01;15.00;;;6.63;;
69894;SDS011;57172;52.034;5.090;2022-08-19T12:22:28;10.20;;;5.82;;
69894;SDS011;57172;52.034;5.090;2022-08-19T12:24:55;9.45;;;5.10;;
69894;SDS011;57172;52.034;5.090;2022-08-19T12:27:22;8.13;;;5.22;;
69894;SDS011;57172;52.034;5.090;2022-08-19T12:30:06;11.68;;;5.20;;
69894;SDS011;57172;52.034;5.090;2022-08-19T12:32:35;9.43;;;5.60;;
69894;SDS011;57172;52.034;5.090;2022-08-19T12:35:03;9.13;;;5.88;;
69894;SDS011;57172;52.034;5.090;2022-08-19T12:37:30;10.80;;;6.50;;
69894;SDS011;57172;52.034;5.090;2022-08-19T12:39:58;12.80;;;7.20;;
69894;SDS011;57172;52.034;5.090;2022-08-19T12:42:25;13.90;;;8.00;;
69894;SDS011;57172;52.034;5.090;2022-08-19T12:44:52;14.97;;;7.80;;
69894;SDS011;57172;52.034;5.090;2022-08-19T12:47:19;12.60;;;8.32;;
69894;SDS011;57172;52.034;5.090;2022-08-19T12:49:54;11.60;;;8.05;;
69894;SDS011;57172;52.034;5.090;2022-08-19T12:52:25;14.27;;;8.63;;
69894;SDS011;57172;52.034;5.090;2022-08-19T12:54:54;13.70;;;7.67;;
69894;SDS011;57172;52.034;5.090;2022-08-19T12:57:22;13.48;;;8.60;;
69894;SDS011;57172;52.034;5.090;2022-08-19T13:00:09;13.85;;;8.57;;
69894;SDS011;57172;52.034;5.090;2022-08-19T13:02:40;14.02;;;8.10;;
69894;SDS011;57172;52.034;5.090;2022-08-19T13:05:12;16.10;;;8.35;;
69894;SDS011;57172;52.034;5.090;2022-08-19T13:07:42;12.70;;;8.37;;
69894;SDS011;57172;52.034;5.090;2022-08-19T13:10:13;11.40;;;6.90;;
69894;SDS011;57172;52.034;5.090;2022-08-19T13:12:46;11.80;;;6.13;;
69894;SDS011;57172;52.034;5.090;2022-08-19T13:15:14;9.23;;;6.38;;
69894;SDS011;57172;52.034;5.090;2022-08-19T13:17:50;9.32;;;5.88;;
69894;SDS011;57172;52.034;5.090;2022-08-19T13:20:19;11.77;;;6.00;;
69894;SDS011;57172;52.034;5.090;2022-08-19T13:22:47;10.25;;;5.45;;
69894;SDS011;57172;52.034;5.090;2022-08-19T13:25:15;9.63;;;6.20;;
69894;SDS011;57172;52.034;5.090;2022-08-19T13:27:43;9.70;;;5.13;;
69894;SDS011;57172;52.034;5.090;2022-08-19T13:30:11;8.52;;;4.80;;
69894;SDS011;57172;52.034;5.090;2022-08-19T13:32:58;8.27;;;5.30;;
69894;SDS011;57172;52.034;5.090;2022-08-19T13:35:38;12.05;;;5.50;;
69894;SDS011;57172;52.034;5.090;2022-08-19T13:38:06;7.75;;;5.45;;
69894;SDS011;57172;52.034;5.090;2022-08-19T13:40:37;6.40;;;4.72;;
69894;SDS011;57172;52.034;5.090;2022-08-19T13:43:06;7.63;;;4.47;;
69894;SDS011;57172;52.034;5.090;2022-08-19T13:45:49;6.80;;;4.30;;
69894;SDS011;57172;52.034;5.090;2022-08-19T13:48:20;7.95;;;4.10;;
69894;SDS011;57172;52.034;5.090;2022-08-19T13:50:47;5.50;;;4.13;;
69894;SDS011;57172;52.034;5.090;2022-08-19T13:53:14;7.28;;;4.97;;
69894;SDS011;57172;52.034;5.090;2022-08-19T13:55:43;8.02;;;5.93;;
69894;SDS011;57172;52.034;5.090;2022-08-19T13:58:10;7.30;;;4.63;;
69894;SDS011;57172;52.034;5.090;2022-08-19T14:00:43;9.60;;;5.30;;
69894;SDS011;57172;52.034;5.090;2022-08-19T14:03:11;6.55;;;4.68;;
69894;SDS011;57172;52.034;5.090;2022-08-19T14:05:39;5.85;;;4.50;;
69894;SDS011;57172;52.034;5.090;2022-08-19T14:08:06;7.35;;;5.07;;
69894;SDS011;57172;52.034;5.090;2022-08-19T14:10:33;7.30;;;5.00;;
69894;SDS011;57172;52.034;5.090;2022-08-19T14:13:01;5.70;;;4.55;;
69894;SDS011;57172;52.034;5.090;2022-08-19T14:15:29;6.43;;;4.80;;
69894;SDS011;57172;52.034;5.090;2022-08-19T14:17:56;6.05;;;4.90;;
69894;SDS011;57172;52.034;5.090;2022-08-19T14:20:23;6.35;;;4.32;;
69894;SDS011;57172;52.034;5.090;2022-08-19T14:22:52;5.30;;;3.73;;
69894;SDS011;57172;52.034;5.090;2022-08-19T14:25:23;6.00;;;4.18;;
69894;SDS011;57172;52.034;5.090;2022-08-19T14:27:52;5.72;;;4.22;;
69894;SDS011;57172;52.034;5.090;2022-08-19T14:30:22;5.15;;;3.92;;
69894;SDS011;57172;52.034;5.090;2022-08-19T14:32:58;4.18;;;2.75;;
69894;SDS011;57172;52.034;5.090;2022-08-19T14:35:28;4.53;;;3.13;;
69894;SDS011;57172;52.034;5.090;2022-08-19T14:37:55;4.43;;;3.40;;
69894;SDS011;57172;52.034;5.090;2022-08-19T14:40:24;7.05;;;4.28;;
69894;SDS011;57172;52.034;5.090;2022-08-19T14:42:54;7.70;;;4.70;;
69894;SDS011;57172;52.034;5.090;2022-08-19T14:45:26;6.07;;;3.92;;
69894;SDS011;57172;52.034;5.090;2022-08-19T14:47:54;6.97;;;4.60;;
69894;SDS011;57172;52.034;5.090;2022-08-19T14:50:22;8.85;;;5.28;;
69894;SDS011;57172;52.034;5.090;2022-08-19T14:52:49;7.28;;;5.13;;
69894;SDS011;57172;52.034;5.090;2022-08-19T14:55:17;9.80;;;5.43;;
69894;SDS011;57172;52.034;5.090;2022-08-19T14:57:44;8.77;;;5.35;;
69894;SDS011;57172;52.034;5.090;2022-08-19T15:00:12;8.73;;;5.60;;
69894;SDS011;57172;52.034;5.090;2022-08-19T15:02:40;8.55;;;5.50;;